Date,TemperatureHighF,TemperatureAvgF,TemperatureLowF,DewpointHighF,DewpointAvgF,DewpointLowF,HumidityHigh,HumidityAvg,HumidityLow,PressureMaxIn,PressureMinIn,WindSpeedMaxMPH,WindSpeedAvgMPH,GustSpeedMaxMPH,PrecipitationSumIn
2013-3-18,73,73,73,71,71,70,94,93,92,30.01,29.99,2,0,2,0.00
2013-3-19,74,71,67,72,68,66,97,90,76,30.04,29.93,28,5,33,0.42
2013-3-20,82,73,67,69,68,64,94,84,64,30.01,29.86,26,6,30,0.00
2013-3-21,77,19,-90,65,13,-90,100,82,59,29.97,29.86,17,4,20,0.00
2013-3-22,85,76,67,73,69,61,94,80,66,30.00,29.90,7,2,12,0.00
2013-3-23,87,79,74,76,74,72,96,85,63,29.99,29.84,9,2,16,0.00
2013-3-24,87,80,76,77,75,73,95,84,66,29.90,29.74,15,4,23,0.00
2013-3-25,78,75,69,75,70,52,95,85,47,30.02,29.78,32,12,36,0.27
2013-3-26,72,65,60,55,50,43,76,60,37,30.24,30.01,37,25,43,0.00
2013-3-27,64,59,54,53,47,42,76,64,52,30.29,30.20,28,18,34,0.00
2013-3-28,70,65,60,58,52,46,74,63,53,30.27,30.18,19,10,24,0.00
2013-3-29,77,69,64,58,56,54,79,64,49,30.29,30.20,15,7,18,0.00
2013-3-30,79,71,66,62,57,53,84,62,42,30.25,30.15,15,3,18,0.00
2013-3-31,84,75,68,70,64,58,88,69,51,30.18,30.04,9,3,14,0.00
2013-4-1,84,76,71,73,71,68,95,86,68,30.08,29.99,9,3,12,0.00
2013-4-2,79,75,72,71,69,67,94,83,67,30.11,30.01,7,3,9,0.00
2013-4-3,85,78,72,73,71,67,90,79,66,30.07,29.97,12,3,16,0.00
2013-4-4,86,79,75,76,74,72,92,83,70,30.05,29.94,9,3,15,0.00
2013-4-5,77,72,66,75,69,64,99,92,79,29.99,29.84,32,9,51,1.26
2013-4-6,74,69,65,67,63,59,88,80,72,30.08,29.96,29,14,33,0.00
2013-4-7,83,75,72,69,66,64,81,73,60,30.11,30.01,12,4,17,0.00
2013-4-8,84,77,73,71,68,66,81,72,62,30.11,30.02,14,5,21,0.00
2013-4-9,85,58,-90,72,50,-90,100,78,63,30.12,30.04,14,5,17,0.00
2013-4-10,-90,-90,-90,-90,-90,-90,100,100,100,30.09,29.97,11,5,19,0.00
2013-4-11,-90,-90,-90,-90,-90,-90,100,100,100,30.01,29.89,12,6,17,0.18
2013-4-12,-90,-88,-90,-90,-90,-100,100,95,3,29.99,29.89,8,3,15,0.00
2013-4-13,-90,-80,-90,-90,-92,-100,100,91,100,30.00,29.92,12,4,15,0.12
2013-4-14,-90,-74,-90,-90,-93,-100,100,79,1,29.98,29.90,12,4,15,0.00
2013-4-15,-90,-44,-90,-90,-99,-128,100,26,1,30.05,29.94,8,3,11,0.00
2013-4-16,89,27,-90,77,-1,-100,100,42,1,30.10,30.02,12,3,15,0.00
2013-4-17,88,82,77,74,72,71,86,75,61,30.09,30.00,10,4,17,0.00
2013-4-18,87,81,74,75,73,71,94,78,65,30.04,29.96,11,5,19,0.07
2013-4-19,90,83,79,76,74,72,86,75,61,30.04,29.96,11,5,18,0.00
2013-4-20,90,82,78,78,75,71,91,80,65,30.07,29.97,9,3,12,0.00
2013-4-21,89,80,73,74,72,67,91,77,59,30.08,29.99,16,3,18,0.14
2013-4-22,88,78,72,75,72,69,96,83,62,30.06,29.93,14,3,20,0.97
2013-4-23,87,79,75,73,70,66,89,75,51,30.06,29.95,17,6,24,0.11
2013-4-24,87,79,74,69,66,63,73,64,52,30.12,30.02,14,6,22,0.00
2013-4-25,86,78,73,66,64,62,71,61,47,30.19,30.07,10,5,14,0.00
2013-4-26,84,77,72,69,64,62,72,64,51,30.21,30.11,12,5,19,0.00
2013-4-27,85,78,74,70,65,62,81,64,50,30.18,30.05,13,6,18,0.00
2013-4-28,85,79,71,71,69,67,92,72,57,30.08,29.97,15,6,18,0.02
2013-4-29,85,78,72,75,72,69,94,81,66,30.02,29.93,15,4,30,0.44
2013-4-30,88,82,74,75,72,68,88,74,57,29.99,29.91,9,4,17,0.00
2013-5-1,86,22,78,76,-53,-100,89,22,68,30.00,29.89,9,2,11,0.72
2013-5-2,76,2,76,73,-96,-100,90,2,90,29.96,29.81,34,5,42,3.05
2013-5-3,84,23,74,77,-52,-100,90,22,1,29.83,29.72,15,4,27,0.05
2013-5-4,-200,0,200,-100,-100,-100,0,0,100,29.86,29.73,22,14,28,0.00
2013-5-5,-200,0,200,-100,-100,-100,0,0,100,29.97,29.82,25,15,28,0.00
2013-5-6,-200,0,200,-100,-100,-100,0,0,100,30.05,29.95,22,9,25,0.00
2013-5-7,-200,0,200,-100,-100,-100,0,0,100,30.09,29.99,13,5,15,0.00
2013-5-8,88,35,76,71,-29,-100,81,28,53,30.14,30.07,11,3,18,0.00
2013-5-9,88,34,79,75,-31,-100,84,27,59,30.15,30.06,11,4,14,0.00
2013-5-10,90,40,82,77,-20,-100,77,31,62,30.12,30.02,10,2,11,0.00
2013-5-11,89,53,79,77,8,-100,85,44,63,30.08,30.00,10,3,13,0.00
2013-5-12,90,82,78,74,71,-100,86,72,56,30.07,29.98,9,3,13,0.00
2013-5-13,86,81,77,76,74,72,88,79,71,30.11,30.00,22,6,25,0.00
2013-5-14,85,70,76,75,49,-100,88,63,55,30.15,30.04,19,8,27,0.00
2013-5-15,76,3,76,63,-94,-100,65,2,62,30.16,30.07,12,6,21,0.00
2013-5-16,86,7,85,67,-86,-100,54,5,51,30.10,30.01,9,4,15,0.00
2013-5-17,-200,0,200,-100,-100,-100,0,0,100,30.09,30.01,9,2,11,0.00
2013-5-18,-200,0,200,-100,-100,-100,0,0,100,30.10,30.03,8,3,13,0.00
2013-5-19,-200,0,200,-100,-100,-100,0,0,100,30.09,29.98,8,3,15,0.00
2013-5-20,-200,0,200,-100,-100,-100,0,0,100,30.05,29.98,25,3,32,0.60
2013-5-21,-200,0,200,-100,-100,-100,0,0,100,30.02,29.91,9,3,12,0.00
2013-5-22,89,11,79,77,-78,-100,75,8,58,29.97,29.89,20,3,31,0.02
2013-5-23,-200,0,200,-100,-100,-100,0,0,100,30.03,29.94,17,5,19,0.00
2013-5-24,-200,0,200,-100,-100,-100,0,0,100,30.08,29.98,13,5,18,0.00
2013-5-25,89,56,80,76,13,-100,75,43,59,30.13,30.03,15,4,22,0.00
2013-5-26,89,82,78,70,68,64,76,63,47,30.15,30.07,15,5,20,0.00
2013-5-27,79,37,72,75,-16,-100,96,42,69,30.12,30.01,13,4,20,3.33
2013-5-28,81,1,81,75,-98,-100,82,1,82,30.08,30.00,14,4,17,0.02
2013-5-29,78,59,71,75,37,-100,97,74,89,30.04,29.97,11,3,17,1.65
2013-5-30,82,76,72,78,74,72,98,93,82,30.04,29.96,11,2,17,2.12
2013-5-31,90,80,74,78,75,72,96,85,67,30.03,29.97,7,2,13,0.00
2013-6-1,88,41,77,78,-10,-100,92,44,71,30.03,29.94,10,1,19,2.06
2013-6-2,87,10,79,79,-80,-100,84,9,73,30.01,29.93,7,1,17,0.26
2013-6-3,-200,0,200,-100,-100,-100,0,0,100,30.04,29.92,12,1,18,4.38
2013-6-4,82,35,79,79,-22,-100,93,40,84,30.03,29.96,10,2,14,0.05
2013-6-5,85,82,74,80,78,73,95,88,84,30.00,29.86,9,4,25,0.71
2013-6-6,90,82,74,81,78,73,98,88,73,29.89,29.80,28,5,41,0.67
2013-6-7,90,82,74,82,78,73,97,88,75,30.02,29.87,16,4,18,0.62
2013-6-8,90,84,77,81,78,75,95,84,70,30.08,29.98,10,3,11,0.00
2013-6-9,89,84,77,79,77,74,94,79,69,30.08,30.00,11,4,19,0.03
2013-6-10,90,84,81,78,77,75,88,79,68,30.07,29.98,12,4,15,0.00
2013-6-11,93,86,79,79,77,75,92,77,57,30.07,30.00,5,1,9,0.00
2013-6-12,92,66,75,80,40,-100,97,64,64,30.08,29.99,34,2,38,0.68
2013-6-13,91,40,81,79,-19,-100,83,33,63,30.07,29.96,6,1,10,0.00
2013-6-14,90,46,79,78,-6,-100,91,39,62,30.00,29.92,7,-9,13,0.06
2013-6-15,91,28,80,77,-43,-100,83,24,61,30.05,29.95,13,2,17,0.07
2013-6-16,88,21,79,77,-56,-100,87,20,67,30.08,30.01,4,1,7,0.00
2013-6-17,87,1,87,78,-98,-100,73,1,73,30.07,30.00,6,2,8,0.00
2013-6-18,-200,0,200,-100,-100,-100,0,0,100,30.06,29.99,4,2,7,0.00
2013-6-19,93,14,88,79,-72,-100,71,11,61,30.04,29.98,3,1,6,0.01
2013-6-20,-200,0,200,-100,-100,-100,0,0,100,30.10,30.01,5,1,7,0.00
2013-6-21,82,1,82,74,-98,-100,78,1,78,30.11,30.02,4,2,6,0.00
2013-6-22,87,7,82,77,-86,-100,84,6,70,30.09,30.02,5,1,7,0.03
2013-6-23,-200,0,200,-100,-100,-100,0,0,100,30.11,30.02,5,2,9,0.10
2013-6-24,81,10,78,75,-79,-100,90,10,78,30.14,30.06,5,2,11,0.17
2013-6-25,-200,0,200,-100,-100,-100,0,0,100,30.11,30.02,5,2,8,0.00
2013-6-26,-200,0,200,-100,-100,-100,0,0,100,30.07,29.99,5,2,8,0.00
2013-6-27,-200,0,200,-100,-100,-100,0,0,100,30.04,29.96,3,1,7,0.00
2013-6-28,-200,0,200,-100,-100,-100,0,0,100,30.00,29.88,3,0,6,0.00
2013-6-29,-200,0,200,-100,-100,-100,0,0,100,29.93,29.86,5,1,9,0.00
2013-6-30,-200,0,200,-100,-100,-100,0,0,100,29.96,29.87,10,3,14,0.00
2013-7-1,84,21,81,76,-56,-100,82,19,70,30.03,29.91,8,-9,9,0.02
2013-7-2,92,84,75,78,76,71,92,77,62,30.08,29.96,10,3,20,0.41
2013-7-3,88,81,74,77,74,70,92,80,69,30.10,30.05,11,3,17,0.80
2013-7-4,90,84,78,77,75,72,86,74,64,30.11,30.04,13,5,20,0.12
2013-7-5,88,80,74,78,74,71,93,82,66,30.11,30.03,17,3,24,0.77
2013-7-6,89,82,79,78,75,73,87,79,68,30.09,30.00,10,4,18,0.09
2013-7-7,90,83,79,77,75,73,87,76,62,30.07,30.00,15,4,19,0.24
2013-7-8,89,83,78,74,73,69,87,72,56,30.12,30.05,13,4,17,0.02
2013-7-9,87,82,79,75,73,70,83,73,63,30.14,30.05,12,3,13,0.00
2013-7-10,91,83,78,75,73,71,86,74,56,30.08,30.00,6,2,12,0.03
2013-7-11,94,85,77,78,75,73,87,72,53,30.04,29.94,5,1,9,0.00
2013-7-12,93,84,78,76,75,73,87,75,57,29.98,29.91,7,2,12,0.00
2013-7-13,90,83,73,78,75,71,94,77,65,30.03,29.92,15,4,19,0.46
2013-7-14,88,81,73,78,74,70,94,80,67,30.08,29.96,11,4,19,0.16
2013-7-15,86,79,74,75,73,70,93,82,61,30.08,30.00,10,4,18,0.32
2013-7-16,86,80,75,77,74,72,94,82,70,30.09,30.00,13,4,21,0.58
2013-7-17,84,77,73,76,74,71,96,89,72,30.12,30.02,10,2,20,1.57
2013-7-18,85,77,71,79,75,71,98,92,78,30.14,30.03,28,4,35,2.24
2013-7-19,90,83,77,80,78,75,96,84,71,30.11,30.02,9,3,15,0.00
2013-7-20,91,84,78,80,78,74,95,81,66,30.10,30.01,8,2,14,0.02
2013-7-21,92,85,80,80,78,75,89,79,64,30.14,30.06,7,2,11,0.00
2013-7-22,92,85,80,77,76,74,85,75,60,30.15,30.07,9,2,11,0.00
2013-7-23,94,86,79,79,76,73,87,73,55,30.12,30.01,5,2,9,0.00
2013-7-24,91,84,78,77,75,74,89,74,59,30.04,29.96,5,1,9,0.00
2013-7-25,89,84,79,77,75,74,85,74,64,30.07,29.95,10,4,18,0.00
2013-7-26,90,85,80,78,76,73,85,74,62,30.07,30.00,12,4,17,0.00
2013-7-27,90,86,81,79,76,75,85,74,64,30.04,29.96,12,3,14,0.18
2013-7-28,95,85,76,78,76,74,96,75,51,30.08,29.95,6,1,9,0.05
2013-7-29,94,87,81,78,76,73,84,72,56,30.12,30.01,10,2,15,0.00
2013-7-30,91,84,80,79,77,72,85,78,65,30.14,30.05,7,2,14,0.00
2013-7-31,92,86,80,78,76,73,87,74,60,30.10,29.97,9,4,18,0.11
2013-8-1,92,85,81,77,75,73,83,73,56,30.03,29.93,8,3,12,0.00
2013-8-2,93,86,79,78,76,75,92,74,56,30.07,29.93,6,1,12,0.01
2013-8-3,94,87,81,78,76,73,85,71,51,30.13,30.04,7,2,11,0.00
2013-8-4,92,85,80,79,77,74,88,75,59,30.12,30.02,8,2,11,0.00
2013-8-5,89,86,81,79,76,71,80,72,57,30.07,29.98,10,3,14,0.00
2013-8-6,90,83,77,79,77,73,96,82,69,30.01,29.91,21,3,27,0.29
2013-8-7,93,85,79,78,76,74,91,76,60,29.96,29.90,13,2,15,0.00
2013-8-8,92,86,83,79,76,73,79,71,60,29.99,29.90,10,5,15,0.00
2013-8-9,89,83,76,77,74,70,92,74,59,30.03,29.92,11,4,24,0.05
2013-8-10,92,86,82,78,76,74,81,72,60,30.09,29.99,15,6,17,0.00
2013-8-11,92,86,81,79,77,76,87,75,62,30.11,30.03,11,5,20,0.03
2013-8-12,92,86,82,77,75,73,82,72,56,30.08,29.99,11,4,18,0.00
2013-8-13,92,86,82,77,76,74,81,72,60,30.03,29.96,9,3,14,0.00
2013-8-14,92,86,82,79,76,73,82,74,61,30.02,29.92,9,3,13,0.07
2013-8-15,92,84,79,78,77,75,89,79,63,30.05,29.96,10,2,17,0.01
2013-8-16,93,86,82,81,78,74,87,78,60,30.04,29.97,10,3,15,0.00
2013-8-17,92,87,82,79,77,75,87,74,59,30.05,29.98,14,4,16,0.02
2013-8-18,93,86,80,79,77,75,88,75,64,30.06,29.96,15,4,17,0.00
2013-8-19,91,85,77,80,77,73,91,77,64,30.05,29.95,11,3,20,0.09
2013-8-20,92,84,81,78,76,74,84,76,60,30.03,29.96,9,3,17,0.00
2013-8-21,92,85,77,82,77,73,91,77,63,30.05,29.95,15,4,18,0.32
2013-8-22,92,85,77,80,77,71,93,78,64,30.03,29.93,17,5,23,0.17
2013-8-23,93,86,82,80,77,74,85,74,60,30.00,29.92,8,3,12,0.00
2013-8-24,93,86,82,78,76,75,82,72,59,30.08,29.96,8,2,11,0.00
2013-8-25,93,86,82,79,77,74,84,74,60,30.12,30.01,9,2,13,0.00
2013-8-26,84,80,74,77,75,71,93,82,71,30.12,30.00,8,2,16,0.25
2013-8-27,82,79,73,76,72,68,92,79,67,30.05,29.96,10,3,18,0.04
2013-8-28,90,80,72,77,74,70,96,83,61,30.03,29.93,10,2,14,0.62
2013-8-29,92,83,78,79,76,74,91,80,59,30.03,29.94,6,2,8,0.00
2013-8-30,91,84,80,78,76,73,86,77,65,30.03,29.93,6,1,9,0.00
2013-8-31,93,84,77,78,76,73,90,77,56,29.99,29.92,6,1,11,0.00
2013-9-1,94,86,81,78,76,73,87,73,56,30.00,29.93,9,2,14,0.00
2013-9-2,94,84,79,80,77,75,91,79,62,30.04,29.94,9,2,15,0.00
2013-9-3,92,83,80,79,77,74,90,80,62,30.02,29.92,14,2,17,0.12
2013-9-4,92,85,80,80,77,76,90,78,64,30.04,29.93,9,3,13,0.00
2013-9-5,93,86,81,78,77,76,88,75,62,30.05,29.97,9,4,16,0.03
2013-9-6,93,86,82,79,77,75,89,74,58,30.02,29.91,9,3,13,0.02
2013-9-7,92,83,80,77,74,71,84,75,53,30.01,29.88,11,3,18,0.00
2013-9-8,88,83,79,79,76,73,91,79,68,29.95,29.85,9,3,11,0.00
2013-9-9,92,84,80,78,76,74,85,75,62,29.98,29.88,7,2,15,0.02
2013-9-10,91,84,75,78,76,71,93,77,62,30.01,29.93,11,4,17,0.32
2013-9-11,92,84,80,78,76,73,87,76,59,30.01,29.94,11,3,19,0.00
2013-9-12,88,82,75,79,76,73,94,83,69,30.00,29.88,6,2,15,0.22
2013-9-13,94,85,78,78,76,74,90,75,56,29.90,29.81,5,1,8,0.00
2013-9-14,92,85,79,78,76,74,86,74,57,29.96,29.83,8,2,12,0.00
2013-9-15,91,84,79,80,78,75,91,82,67,30.02,29.90,19,4,19,0.06
2013-9-16,83,79,74,78,76,71,94,88,80,30.06,29.92,12,4,19,0.71
2013-9-17,85,81,77,78,76,73,91,86,78,30.03,29.91,17,5,18,0.15
2013-9-18,87,82,79,79,78,75,94,87,76,30.00,29.90,16,2,20,0.00
2013-9-19,91,83,79,79,77,74,92,83,58,30.00,29.92,17,4,18,0.00
2013-9-20,89,83,78,77,74,68,90,75,58,30.00,29.89,10,4,17,0.00
2013-9-21,91,82,78,78,75,71,91,80,60,29.90,29.78,14,2,17,0.30
2013-9-22,90,84,78,79,76,73,88,77,65,29.89,29.78,10,2,13,0.00
2013-9-23,93,86,82,81,78,75,87,79,67,29.98,29.86,7,4,17,0.00
2013-9-24,93,86,81,80,78,77,90,79,66,29.98,29.90,8,2,11,0.00
2013-9-25,91,85,81,80,78,71,89,80,65,29.92,29.85,19,3,24,0.05
2013-9-26,87,85,82,80,78,77,88,81,74,29.91,29.84,18,8,22,0.00
2013-9-27,86,84,83,80,76,71,87,77,62,29.92,29.84,18,10,22,0.06
2013-9-28,92,84,75,76,74,71,88,73,58,29.95,29.86,8,2,13,0.41
2013-9-29,91,82,75,76,74,72,93,77,59,29.95,29.86,9,2,14,0.00
2013-9-30,93,83,77,78,74,70,88,76,54,29.98,29.89,6,2,14,0.33
2013-10-1,91,84,76,78,76,74,95,78,65,30.01,29.92,10,4,19,0.29
2013-10-2,90,82,76,79,77,74,96,84,68,30.01,29.93,11,2,12,0.72
2013-10-3,91,84,81,79,77,75,87,79,65,30.03,29.93,12,4,15,0.00
2013-10-4,91,84,80,77,76,73,90,77,63,30.03,29.96,10,3,14,0.12
2013-10-5,88,82,79,76,74,71,85,75,66,30.01,29.92,8,3,11,0.00
2013-10-6,94,82,78,76,73,70,87,74,53,29.97,29.88,6,1,8,0.00
2013-10-7,89,84,79,78,76,72,86,78,67,29.93,29.85,13,4,16,0.00
2013-10-8,88,83,78,78,76,74,92,81,69,29.96,29.86,15,4,18,0.30
2013-10-9,85,82,78,76,74,66,85,75,57,30.00,29.92,10,4,12,0.00
2013-10-10,87,82,77,77,76,74,91,82,66,30.02,29.93,12,4,22,0.30
2013-10-11,87,82,78,75,73,69,85,74,60,30.00,29.92,13,5,16,0.00
2013-10-12,88,82,78,71,68,65,76,65,47,30.03,29.94,8,3,13,0.00
2013-10-13,86,81,77,73,69,67,75,68,57,30.04,29.95,9,3,14,0.00
2013-10-14,86,81,78,73,70,67,80,68,54,30.01,29.90,11,5,15,0.00
2013-10-15,86,80,78,73,71,68,82,73,61,29.96,29.87,12,4,15,0.00
2013-10-16,87,81,78,75,73,70,86,77,57,29.95,29.88,8,4,13,0.00
2013-10-17,86,81,76,76,74,69,88,78,67,29.96,29.89,8,2,12,0.00
2013-10-18,90,82,78,78,75,72,85,79,65,29.97,29.89,10,3,14,0.00
2013-10-19,91,83,78,78,76,75,93,79,64,29.96,29.88,8,2,11,0.00
2013-10-20,92,84,78,79,77,75,93,80,65,29.96,29.88,6,2,10,0.00
2013-10-21,92,84,80,79,76,75,89,77,60,30.01,29.91,7,2,12,0.00
2013-10-22,92,84,80,78,77,75,88,78,64,29.96,29.86,6,2,10,0.00
2013-10-23,86,83,80,79,76,74,89,82,74,29.95,29.84,16,4,19,0.00
2013-10-24,83,80,78,76,73,70,89,80,71,30.07,29.91,18,8,21,0.03
2013-10-25,82,78,76,72,69,66,82,74,61,30.13,30.04,19,10,23,0.00
2013-10-26,83,78,75,71,69,66,85,74,61,30.12,30.04,13,7,18,0.00
2013-10-27,83,78,75,70,68,65,82,73,61,30.08,30.00,13,6,18,0.00
2013-10-28,83,78,75,72,70,66,86,75,63,30.12,30.02,11,5,16,0.00
2013-10-29,85,79,76,73,71,68,88,77,59,30.16,30.07,14,6,18,0.00
2013-10-30,86,80,77,73,69,67,86,71,58,30.15,30.05,12,5,18,0.00
2013-10-31,87,81,78,73,71,69,80,71,60,30.09,29.98,9,4,15,0.00
2013-11-1,83,79,75,75,73,71,92,82,74,30.01,29.90,6,1,7,0.00
2013-11-2,84,79,73,76,73,70,94,81,66,29.95,29.85,13,3,16,0.00
2013-11-3,81,77,73,74,68,63,88,75,65,30.00,29.89,22,12,24,0.00
2013-11-4,82,77,73,73,69,64,95,78,55,30.05,29.96,17,9,25,0.14
2013-11-5,80,77,74,75,73,71,93,86,78,30.03,29.95,18,8,26,0.20
2013-11-6,84,79,76,76,74,71,91,84,75,30.02,29.95,14,5,21,0.02
2013-11-7,81,78,76,75,73,72,91,86,77,30.02,29.93,19,7,22,0.00
2013-11-8,84,78,75,75,73,70,92,82,74,30.02,29.93,21,9,22,0.00
2013-11-9,87,80,76,77,75,73,93,85,68,30.07,29.98,12,6,19,0.02
2013-11-10,82,78,73,77,75,72,98,91,81,30.09,30.01,13,5,21,2.52
2013-11-11,84,79,76,77,74,73,91,86,74,30.09,30.01,13,6,19,0.00
2013-11-12,83,79,76,76,74,73,92,85,77,30.06,29.96,10,4,14,0.00
2013-11-13,78,75,73,73,70,67,89,82,74,30.14,29.98,22,12,30,0.00
2013-11-14,79,75,73,68,66,65,81,74,69,30.17,30.08,21,10,27,0.00
2013-11-15,81,77,74,74,71,67,95,82,72,30.09,29.99,11,5,19,0.32
2013-11-16,84,80,77,74,73,71,88,80,69,30.06,29.97,11,5,18,0.01
2013-11-17,86,80,77,74,72,71,92,77,66,30.06,29.98,11,3,15,0.00
2013-11-18,84,78,75,76,73,71,94,85,69,30.02,29.92,6,2,8,0.00
2013-11-19,80,78,76,74,73,70,90,84,79,29.95,29.87,11,5,13,0.00
2013-11-20,87,79,74,76,72,70,93,80,61,30.05,29.92,5,1,8,0.00
2013-11-21,85,80,76,74,71,69,89,76,63,30.11,30.03,10,3,13,0.00
2013-11-22,81,77,73,75,73,71,96,88,80,30.11,30.02,10,4,19,0.83
2013-11-23,85,79,76,76,73,71,94,84,67,30.05,29.96,13,4,16,0.01
2013-11-24,83,78,74,75,71,69,91,81,65,30.10,29.97,22,6,23,0.00
2013-11-25,79,75,72,72,70,68,95,85,74,30.13,30.01,20,8,27,0.53
2013-11-26,85,80,75,78,75,71,94,84,74,30.00,29.85,12,4,19,0.18
2013-11-27,79,74,68,76,68,61,98,83,66,30.11,29.83,29,14,32,2.29
2013-11-28,71,65,58,64,59,54,90,82,73,30.23,30.11,27,13,31,0.00
2013-11-29,75,70,66,66,65,62,89,82,74,30.23,30.15,17,8,22,0.00
2013-11-30,74,70,67,70,67,64,93,88,83,30.19,30.09,18,10,20,0.00
2013-12-1,73,71,69,70,68,66,92,89,86,30.11,29.97,16,9,19,0.00
2013-12-2,73,71,67,68,66,65,95,86,78,29.97,29.85,15,6,19,0.00
2013-12-3,84,74,65,68,66,63,95,77,56,30.01,29.91,7,1,8,0.00
2013-12-4,85,77,73,72,69,67,89,76,64,30.09,29.98,6,1,9,0.00
2013-12-5,84,78,73,72,69,66,84,76,63,30.15,30.05,8,3,11,0.00
2013-12-6,83,78,75,74,71,68,90,79,68,30.17,30.06,11,3,15,0.05
2013-12-7,84,78,74,74,71,67,90,79,67,30.19,30.11,10,3,15,0.00
2013-12-8,83,78,73,73,71,68,93,78,64,30.18,30.09,12,4,16,0.05
2013-12-9,83,79,76,73,71,68,89,77,61,30.17,30.08,12,4,19,0.01
2013-12-10,85,79,76,75,73,71,91,82,70,30.14,30.07,6,2,12,0.00
2013-12-11,82,76,73,75,74,70,96,92,80,30.18,30.09,9,2,15,1.34
2013-12-12,80,76,71,75,72,66,97,88,76,30.21,30.11,17,7,24,0.80
2013-12-13,82,75,71,72,70,66,93,82,70,30.15,30.05,19,7,22,0.03
2013-12-14,84,79,74,74,73,71,91,81,71,30.08,29.98,9,4,15,0.00
2013-12-15,85,79,76,77,75,73,92,86,73,30.07,29.96,14,4,17,0.01
2013-12-16,76,73,70,73,68,64,92,85,74,30.16,30.04,22,13,24,0.00
2013-12-17,77,72,68,70,67,64,92,85,76,30.17,30.07,16,8,20,0.00
2013-12-18,74,72,69,67,64,61,83,77,64,30.22,30.12,15,9,19,0.00
2013-12-19,79,73,68,71,66,64,89,79,62,30.21,30.11,11,5,18,0.00
2013-12-20,82,78,75,73,72,71,87,81,73,30.15,30.07,14,5,22,0.00
2013-12-21,83,79,76,75,73,71,85,81,73,30.12,30.03,12,5,18,0.00
2013-12-22,85,80,77,75,73,72,90,81,70,30.14,30.05,12,4,18,0.00
2013-12-23,86,79,75,76,74,71,89,83,70,30.17,30.10,7,2,13,0.00
2013-12-24,78,74,70,74,71,67,96,90,83,30.18,30.06,24,8,27,0.00
2013-12-25,78,72,69,72,69,66,96,90,80,30.13,30.06,15,6,21,0.48
2013-12-26,78,74,72,74,71,69,96,90,78,30.14,30.04,11,5,16,0.05
2013-12-27,82,76,74,75,73,71,95,89,75,30.16,30.06,9,4,15,0.00
2013-12-28,83,78,76,75,73,71,89,83,76,30.14,30.01,14,5,16,0.00
2013-12-29,79,77,73,75,74,71,94,89,85,30.06,29.96,8,2,14,0.08
2013-12-30,77,75,73,74,73,72,97,93,89,30.12,29.99,13,4,15,0.00
2013-12-31,77,74,71,73,71,68,95,91,85,30.19,30.09,20,8,25,0.02
2014-1-1,85,79,74,76,73,70,92,83,73,30.16,30.04,11,4,16,0.00
2014-1-2,85,78,73,73,72,70,94,80,65,30.04,29.91,9,2,15,0.00